sensor_id;sensor_type;location;lat;lon;timestamp;temperature;humidity
871;DHT22;422;51.280;7.236;2022-07-01T00:01:18;14.20;99.90
871;DHT22;422;51.280;7.236;2022-07-01T00:03:45;14.20;99.90
871;DHT22;422;51.280;7.236;2022-07-01T00:06:20;14.20;99.90
871;DHT22;422;51.280;7.236;2022-07-01T00:08:47;14.20;99.90
871;DHT22;422;51.280;7.236;2022-07-01T00:11:15;14.10;99.90
871;DHT22;422;51.280;7.236;2022-07-01T00:13:42;14.10;99.90
871;DHT22;422;51.280;7.236;2022-07-01T00:16:10;14.20;99.90
871;DHT22;422;51.280;7.236;2022-07-01T00:18:38;14.20;99.90
871;DHT22;422;51.280;7.236;2022-07-01T00:21:05;14.20;99.90
871;DHT22;422;51.280;7.236;2022-07-01T00:23:34;14.20;99.90
871;DHT22;422;51.280;7.236;2022-07-01T00:26:02;14.20;29.40
871;DHT22;422;51.280;7.236;2022-07-01T00:28:29;14.20;99.90
871;DHT22;422;51.280;7.236;2022-07-01T00:30:56;14.20;1.00
871;DHT22;422;51.280;7.236;2022-07-01T00:33:27;14.10;1.00
871;DHT22;422;51.280;7.236;2022-07-01T00:35:54;14.10;99.90
871;DHT22;422;51.280;7.236;2022-07-01T00:38:21;14.10;1.00
871;DHT22;422;51.280;7.236;2022-07-01T00:40:53;14.10;25.30
871;DHT22;422;51.280;7.236;2022-07-01T00:43:23;14.20;99.90
871;DHT22;422;51.280;7.236;2022-07-01T00:45:51;14.20;2.40
871;DHT22;422;51.280;7.236;2022-07-01T00:48:20;14.20;1.00
871;DHT22;422;51.280;7.236;2022-07-01T00:50:48;14.20;99.90
871;DHT22;422;51.280;7.236;2022-07-01T00:53:16;14.10;1.00
871;DHT22;422;51.280;7.236;2022-07-01T00:55:43;14.00;99.90
871;DHT22;422;51.280;7.236;2022-07-01T00:58:12;14.00;1.00
871;DHT22;422;51.280;7.236;2022-07-01T01:00:40;13.90;1.00
871;DHT22;422;51.280;7.236;2022-07-01T01:03:09;13.90;31.90
871;DHT22;422;51.280;7.236;2022-07-01T01:05:37;13.90;1.00
871;DHT22;422;51.280;7.236;2022-07-01T01:08:08;14.00;1.00
871;DHT22;422;51.280;7.236;2022-07-01T01:10:37;14.00;99.90
871;DHT22;422;51.280;7.236;2022-07-01T01:13:04;14.00;99.90
871;DHT22;422;51.280;7.236;2022-07-01T01:15:33;14.00;1.00
871;DHT22;422;51.280;7.236;2022-07-01T01:18:00;13.90;99.90
871;DHT22;422;51.280;7.236;2022-07-01T01:20:32;14.00;1.00
871;DHT22;422;51.280;7.236;2022-07-01T01:23:00;14.10;99.90
871;DHT22;422;51.280;7.236;2022-07-01T01:25:27;14.10;79.90
871;DHT22;422;51.280;7.236;2022-07-01T01:27:57;14.20;1.00
871;DHT22;422;51.280;7.236;2022-07-01T01:30:24;14.10;5.70
871;DHT22;422;51.280;7.236;2022-07-01T01:32:52;14.10;99.90
871;DHT22;422;51.280;7.236;2022-07-01T01:35:20;14.10;1.00
871;DHT22;422;51.280;7.236;2022-07-01T01:37:49;14.10;99.90
871;DHT22;422;51.280;7.236;2022-07-01T01:40:17;14.10;99.90
871;DHT22;422;51.280;7.236;2022-07-01T01:42:47;14.10;1.00
871;DHT22;422;51.280;7.236;2022-07-01T01:45:14;14.00;1.00
871;DHT22;422;51.280;7.236;2022-07-01T01:47:41;14.00;1.00
871;DHT22;422;51.280;7.236;2022-07-01T01:50:09;14.00;1.00
871;DHT22;422;51.280;7.236;2022-07-01T01:52:38;14.00;1.00
871;DHT22;422;51.280;7.236;2022-07-01T01:55:14;14.00;59.00
871;DHT22;422;51.280;7.236;2022-07-01T01:57:41;14.10;98.00
871;DHT22;422;51.280;7.236;2022-07-01T02:00:09;14.10;3.80
871;DHT22;422;51.280;7.236;2022-07-01T02:02:36;14.10;1.00
871;DHT22;422;51.280;7.236;2022-07-01T02:05:07;14.10;1.00
871;DHT22;422;51.280;7.236;2022-07-01T02:07:36;14.00;1.00
871;DHT22;422;51.280;7.236;2022-07-01T02:10:06;14.10;1.00
871;DHT22;422;51.280;7.236;2022-07-01T02:12:34;14.00;1.00
871;DHT22;422;51.280;7.236;2022-07-01T02:15:02;14.00;99.90
871;DHT22;422;51.280;7.236;2022-07-01T02:17:32;13.90;99.90
871;DHT22;422;51.280;7.236;2022-07-01T02:20:02;13.90;99.90
871;DHT22;422;51.280;7.236;2022-07-01T02:22:30;13.90;99.90
871;DHT22;422;51.280;7.236;2022-07-01T02:24:57;14.00;99.90
871;DHT22;422;51.280;7.236;2022-07-01T02:27:28;14.00;99.90
871;DHT22;422;51.280;7.236;2022-07-01T02:29:56;13.90;99.90
871;DHT22;422;51.280;7.236;2022-07-01T02:32:26;13.90;99.90
871;DHT22;422;51.280;7.236;2022-07-01T02:34:55;14.00;99.90
871;DHT22;422;51.280;7.236;2022-07-01T02:37:22;14.00;99.90
871;DHT22;422;51.280;7.236;2022-07-01T02:39:50;13.90;99.90
871;DHT22;422;51.280;7.236;2022-07-01T02:42:17;13.90;99.90
871;DHT22;422;51.280;7.236;2022-07-01T02:44:59;13.90;99.90
871;DHT22;422;51.280;7.236;2022-07-01T02:47:31;14.00;99.90
871;DHT22;422;51.280;7.236;2022-07-01T02:49:58;14.10;99.90
871;DHT22;422;51.280;7.236;2022-07-01T02:52:25;14.10;99.90
871;DHT22;422;51.280;7.236;2022-07-01T02:54:56;14.00;99.90
871;DHT22;422;51.280;7.236;2022-07-01T02:57:26;14.00;99.90
871;DHT22;422;51.280;7.236;2022-07-01T02:59:56;14.10;99.90
871;DHT22;422;51.280;7.236;2022-07-01T03:02:25;14.00;99.90
871;DHT22;422;51.280;7.236;2022-07-01T03:04:53;13.90;99.90
871;DHT22;422;51.280;7.236;2022-07-01T03:07:20;13.90;99.90
871;DHT22;422;51.280;7.236;2022-07-01T03:09:48;13.90;99.90
871;DHT22;422;51.280;7.236;2022-07-01T03:12:15;13.90;99.90
871;DHT22;422;51.280;7.236;2022-07-01T03:14:53;13.90;99.90
871;DHT22;422;51.280;7.236;2022-07-01T03:17:21;13.80;99.90
871;DHT22;422;51.280;7.236;2022-07-01T03:19:50;13.80;99.90
871;DHT22;422;51.280;7.236;2022-07-01T03:22:19;13.80;99.90
871;DHT22;422;51.280;7.236;2022-07-01T03:24:50;13.80;99.90
871;DHT22;422;51.280;7.236;2022-07-01T03:27:18;13.80;99.90
871;DHT22;422;51.280;7.236;2022-07-01T03:29:46;13.90;99.90
871;DHT22;422;51.280;7.236;2022-07-01T03:32:14;13.90;99.90
871;DHT22;422;51.280;7.236;2022-07-01T03:34:44;13.90;99.90
871;DHT22;422;51.280;7.236;2022-07-01T03:37:14;14.00;99.90
871;DHT22;422;51.280;7.236;2022-07-01T03:39:43;13.90;99.90
871;DHT22;422;51.280;7.236;2022-07-01T03:42:11;14.00;99.90
871;DHT22;422;51.280;7.236;2022-07-01T03:44:40;13.90;99.90
871;DHT22;422;51.280;7.236;2022-07-01T03:47:10;13.90;72.50
871;DHT22;422;51.280;7.236;2022-07-01T03:49:37;13.80;35.30
871;DHT22;422;51.280;7.236;2022-07-01T03:52:05;13.80;76.40
871;DHT22;422;51.280;7.236;2022-07-01T03:54:33;13.80;32.10
871;DHT22;422;51.280;7.236;2022-07-01T03:57:06;13.90;26.40
871;DHT22;422;51.280;7.236;2022-07-01T03:59:35;13.90;17.10
871;DHT22;422;51.280;7.236;2022-07-01T04:02:03;13.80;15.90
871;DHT22;422;51.280;7.236;2022-07-01T04:04:34;13.90;24.60
871;DHT22;422;51.280;7.236;2022-07-01T04:07:05;13.80;10.00
871;DHT22;422;51.280;7.236;2022-07-01T04:09:35;13.90;19.40
871;DHT22;422;51.280;7.236;2022-07-01T04:12:03;13.90;22.40
871;DHT22;422;51.280;7.236;2022-07-01T04:14:33;13.90;39.00
871;DHT22;422;51.280;7.236;2022-07-01T04:17:00;13.90;50.50
871;DHT22;422;51.280;7.236;2022-07-01T04:19:28;14.00;35.40
871;DHT22;422;51.280;7.236;2022-07-01T04:21:56;13.90;10.30
871;DHT22;422;51.280;7.236;2022-07-01T04:24:42;13.90;99.90
871;DHT22;422;51.280;7.236;2022-07-01T04:27:09;13.90;99.90
871;DHT22;422;51.280;7.236;2022-07-01T04:29:40;13.90;99.90
871;DHT22;422;51.280;7.236;2022-07-01T04:32:07;13.90;99.90
871;DHT22;422;51.280;7.236;2022-07-01T04:34:35;13.90;99.90
871;DHT22;422;51.280;7.236;2022-07-01T04:37:06;13.90;99.90
871;DHT22;422;51.280;7.236;2022-07-01T04:39:33;13.90;99.90
871;DHT22;422;51.280;7.236;2022-07-01T04:42:02;13.90;99.90
871;DHT22;422;51.280;7.236;2022-07-01T04:44:30;14.00;99.90
871;DHT22;422;51.280;7.236;2022-07-01T04:47:01;14.00;99.90
871;DHT22;422;51.280;7.236;2022-07-01T04:49:30;13.90;99.90
871;DHT22;422;51.280;7.236;2022-07-01T04:51:58;13.90;99.90
871;DHT22;422;51.280;7.236;2022-07-01T04:54:26;13.90;99.90
871;DHT22;422;51.280;7.236;2022-07-01T04:56:54;13.90;99.90
871;DHT22;422;51.280;7.236;2022-07-01T04:59:33;13.90;99.90
871;DHT22;422;51.280;7.236;2022-07-01T05:02:00;13.90;99.90
871;DHT22;422;51.280;7.236;2022-07-01T05:04:27;13.90;99.90
871;DHT22;422;51.280;7.236;2022-07-01T05:06:55;13.90;99.90
871;DHT22;422;51.280;7.236;2022-07-01T05:09:22;13.90;91.80
871;DHT22;422;51.280;7.236;2022-07-01T05:11:49;14.00;99.90
871;DHT22;422;51.280;7.236;2022-07-01T05:14:19;14.00;99.90
871;DHT22;422;51.280;7.236;2022-07-01T05:16:50;14.20;48.40
871;DHT22;422;51.280;7.236;2022-07-01T05:19:21;14.20;9.20
871;DHT22;422;51.280;7.236;2022-07-01T05:22:05;14.30;1.00
871;DHT22;422;51.280;7.236;2022-07-01T05:24:35;14.30;1.00
871;DHT22;422;51.280;7.236;2022-07-01T05:27:05;14.20;1.00
871;DHT22;422;51.280;7.236;2022-07-01T05:29:33;14.30;1.00
871;DHT22;422;51.280;7.236;2022-07-01T05:32:02;14.30;1.00
871;DHT22;422;51.280;7.236;2022-07-01T05:34:29;14.40;1.00
871;DHT22;422;51.280;7.236;2022-07-01T05:36:57;14.50;1.00
871;DHT22;422;51.280;7.236;2022-07-01T05:39:24;14.40;1.00
871;DHT22;422;51.280;7.236;2022-07-01T05:41:54;14.30;1.00
871;DHT22;422;51.280;7.236;2022-07-01T05:44:22;14.30;1.00
871;DHT22;422;51.280;7.236;2022-07-01T05:46:51;14.30;1.00
871;DHT22;422;51.280;7.236;2022-07-01T05:49:20;14.20;1.00
871;DHT22;422;51.280;7.236;2022-07-01T05:51:47;14.30;1.00
871;DHT22;422;51.280;7.236;2022-07-01T05:54:15;14.20;1.00
871;DHT22;422;51.280;7.236;2022-07-01T05:56:42;14.20;1.00
871;DHT22;422;51.280;7.236;2022-07-01T05:59:12;14.20;1.00
871;DHT22;422;51.280;7.236;2022-07-01T06:01:41;14.30;1.00
871;DHT22;422;51.280;7.236;2022-07-01T06:04:09;14.20;1.00
871;DHT22;422;51.280;7.236;2022-07-01T06:06:40;14.30;1.00
871;DHT22;422;51.280;7.236;2022-07-01T06:09:11;14.40;1.00
871;DHT22;422;51.280;7.236;2022-07-01T06:11:38;14.50;1.00
871;DHT22;422;51.280;7.236;2022-07-01T06:14:05;14.40;1.00
871;DHT22;422;51.280;7.236;2022-07-01T06:16:37;14.50;1.00
871;DHT22;422;51.280;7.236;2022-07-01T06:19:04;14.50;1.00
871;DHT22;422;51.280;7.236;2022-07-01T06:21:33;14.30;1.00
871;DHT22;422;51.280;7.236;2022-07-01T06:24:01;14.30;1.00
871;DHT22;422;51.280;7.236;2022-07-01T06:26:28;14.40;1.00
871;DHT22;422;51.280;7.236;2022-07-01T06:28:55;14.40;1.00
871;DHT22;422;51.280;7.236;2022-07-01T06:31:23;14.50;1.00
871;DHT22;422;51.280;7.236;2022-07-01T06:33:57;14.50;1.00
871;DHT22;422;51.280;7.236;2022-07-01T06:36:29;14.50;1.00
871;DHT22;422;51.280;7.236;2022-07-01T06:38:56;14.60;1.00
871;DHT22;422;51.280;7.236;2022-07-01T06:41:26;14.60;1.00
871;DHT22;422;51.280;7.236;2022-07-01T06:44:00;14.50;1.00
871;DHT22;422;51.280;7.236;2022-07-01T06:46:28;14.40;1.00
871;DHT22;422;51.280;7.236;2022-07-01T06:48:56;14.40;1.00
871;DHT22;422;51.280;7.236;2022-07-01T06:51:24;14.50;1.00
871;DHT22;422;51.280;7.236;2022-07-01T06:53:56;14.60;1.00
871;DHT22;422;51.280;7.236;2022-07-01T06:56:23;14.60;1.00
871;DHT22;422;51.280;7.236;2022-07-01T06:58:53;14.60;1.00
871;DHT22;422;51.280;7.236;2022-07-01T07:01:21;14.60;1.00
871;DHT22;422;51.280;7.236;2022-07-01T07:03:53;14.80;1.00
871;DHT22;422;51.280;7.236;2022-07-01T07:06:20;14.90;1.00
871;DHT22;422;51.280;7.236;2022-07-01T07:08:47;15.10;1.00
871;DHT22;422;51.280;7.236;2022-07-01T07:11:22;15.30;1.00
871;DHT22;422;51.280;7.236;2022-07-01T07:13:50;15.50;1.00
871;DHT22;422;51.280;7.236;2022-07-01T07:16:21;15.60;1.00
871;DHT22;422;51.280;7.236;2022-07-01T07:18:53;15.60;1.00
871;DHT22;422;51.280;7.236;2022-07-01T07:21:20;15.80;1.00
871;DHT22;422;51.280;7.236;2022-07-01T07:23:47;15.90;1.00
871;DHT22;422;51.280;7.236;2022-07-01T07:26:17;16.10;99.90
871;DHT22;422;51.280;7.236;2022-07-01T07:28:44;16.20;99.90
871;DHT22;422;51.280;7.236;2022-07-01T07:31:12;16.20;99.90
871;DHT22;422;51.280;7.236;2022-07-01T07:33:41;16.20;99.90
871;DHT22;422;51.280;7.236;2022-07-01T07:36:10;16.40;99.90
871;DHT22;422;51.280;7.236;2022-07-01T07:38:40;16.70;99.90
871;DHT22;422;51.280;7.236;2022-07-01T07:41:07;16.60;99.90
871;DHT22;422;51.280;7.236;2022-07-01T07:43:35;16.40;99.90
871;DHT22;422;51.280;7.236;2022-07-01T07:46:02;16.50;99.90
871;DHT22;422;51.280;7.236;2022-07-01T07:48:32;16.50;99.90
871;DHT22;422;51.280;7.236;2022-07-01T07:51:01;16.50;99.90
871;DHT22;422;51.280;7.236;2022-07-01T07:53:31;16.30;99.90
871;DHT22;422;51.280;7.236;2022-07-01T07:56:01;16.10;99.90
871;DHT22;422;51.280;7.236;2022-07-01T07:58:32;16.10;99.90
871;DHT22;422;51.280;7.236;2022-07-01T08:01:00;16.00;99.90
871;DHT22;422;51.280;7.236;2022-07-01T08:03:27;15.80;99.90
871;DHT22;422;51.280;7.236;2022-07-01T08:05:58;15.90;99.90
871;DHT22;422;51.280;7.236;2022-07-01T08:08:29;16.00;99.90
871;DHT22;422;51.280;7.236;2022-07-01T08:11:00;16.10;99.90
871;DHT22;422;51.280;7.236;2022-07-01T08:13:27;16.30;99.90
871;DHT22;422;51.280;7.236;2022-07-01T08:15:58;16.20;99.90
871;DHT22;422;51.280;7.236;2022-07-01T08:18:25;16.40;99.90
871;DHT22;422;51.280;7.236;2022-07-01T08:20:53;16.70;99.90
871;DHT22;422;51.280;7.236;2022-07-01T08:23:23;17.20;99.90
871;DHT22;422;51.280;7.236;2022-07-01T08:25:52;17.60;99.90
871;DHT22;422;51.280;7.236;2022-07-01T08:28:19;17.80;99.90
871;DHT22;422;51.280;7.236;2022-07-01T08:30:49;18.00;99.90
871;DHT22;422;51.280;7.236;2022-07-01T08:33:22;18.40;99.90
871;DHT22;422;51.280;7.236;2022-07-01T08:35:50;18.60;99.90
871;DHT22;422;51.280;7.236;2022-07-01T08:38:18;19.10;99.90
871;DHT22;422;51.280;7.236;2022-07-01T08:40:47;19.80;99.90
871;DHT22;422;51.280;7.236;2022-07-01T08:43:15;20.70;99.90
871;DHT22;422;51.280;7.236;2022-07-01T08:45:42;20.40;99.90
871;DHT22;422;51.280;7.236;2022-07-01T08:48:10;20.10;99.90
871;DHT22;422;51.280;7.236;2022-07-01T08:50:41;20.00;99.90
871;DHT22;422;51.280;7.236;2022-07-01T08:53:10;21.00;99.90
871;DHT22;422;51.280;7.236;2022-07-01T08:55:38;21.20;99.90
871;DHT22;422;51.280;7.236;2022-07-01T08:58:20;21.30;99.90
871;DHT22;422;51.280;7.236;2022-07-01T09:00:51;21.30;99.90
871;DHT22;422;51.280;7.236;2022-07-01T09:03:21;21.30;99.90
871;DHT22;422;51.280;7.236;2022-07-01T09:05:56;21.00;99.90
871;DHT22;422;51.280;7.236;2022-07-01T09:08:29;21.50;99.90
871;DHT22;422;51.280;7.236;2022-07-01T09:11:11;21.80;99.90
871;DHT22;422;51.280;7.236;2022-07-01T09:13:42;21.20;99.90
871;DHT22;422;51.280;7.236;2022-07-01T09:16:14;20.80;99.90
871;DHT22;422;51.280;7.236;2022-07-01T09:18:59;20.40;99.90
871;DHT22;422;51.280;7.236;2022-07-01T09:21:31;20.10;99.90
871;DHT22;422;51.280;7.236;2022-07-01T09:24:03;19.90;99.90
871;DHT22;422;51.280;7.236;2022-07-01T09:26:31;20.20;99.90
871;DHT22;422;51.280;7.236;2022-07-01T09:29:01;20.50;99.90
871;DHT22;422;51.280;7.236;2022-07-01T09:31:36;20.30;99.90
871;DHT22;422;51.280;7.236;2022-07-01T09:34:14;20.20;99.90
871;DHT22;422;51.280;7.236;2022-07-01T09:36:51;20.50;99.90
871;DHT22;422;51.280;7.236;2022-07-01T09:39:21;20.70;99.90
871;DHT22;422;51.280;7.236;2022-07-01T09:41:49;20.90;99.90
871;DHT22;422;51.280;7.236;2022-07-01T09:44:18;20.80;99.90
871;DHT22;422;51.280;7.236;2022-07-01T09:46:52;20.70;99.90
871;DHT22;422;51.280;7.236;2022-07-01T09:49:20;20.40;99.90
871;DHT22;422;51.280;7.236;2022-07-01T09:51:51;20.10;99.90
871;DHT22;422;51.280;7.236;2022-07-01T09:54:19;20.00;99.90
871;DHT22;422;51.280;7.236;2022-07-01T09:56:46;19.60;99.90
871;DHT22;422;51.280;7.236;2022-07-01T09:59:21;19.20;99.90
871;DHT22;422;51.280;7.236;2022-07-01T10:01:51;18.90;99.90
871;DHT22;422;51.280;7.236;2022-07-01T10:04:23;18.20;99.90
871;DHT22;422;51.280;7.236;2022-07-01T10:07:04;18.00;99.90
871;DHT22;422;51.280;7.236;2022-07-01T10:10:00;17.70;99.90
871;DHT22;422;51.280;7.236;2022-07-01T10:12:34;17.50;99.90
871;DHT22;422;51.280;7.236;2022-07-01T10:15:05;17.30;99.90
871;DHT22;422;51.280;7.236;2022-07-01T10:17:36;17.40;99.90
871;DHT22;422;51.280;7.236;2022-07-01T10:20:10;17.50;99.90
871;DHT22;422;51.280;7.236;2022-07-01T10:22:44;17.60;99.90
871;DHT22;422;51.280;7.236;2022-07-01T10:25:34;17.60;99.90
871;DHT22;422;51.280;7.236;2022-07-01T10:28:40;17.60;99.90
871;DHT22;422;51.280;7.236;2022-07-01T10:31:12;17.90;99.90
871;DHT22;422;51.280;7.236;2022-07-01T10:33:55;18.80;99.90
871;DHT22;422;51.280;7.236;2022-07-01T10:36:30;19.90;99.90
871;DHT22;422;51.280;7.236;2022-07-01T10:39:14;20.40;99.90
871;DHT22;422;51.280;7.236;2022-07-01T10:42:02;21.40;99.90
871;DHT22;422;51.280;7.236;2022-07-01T10:44:35;21.70;99.90
871;DHT22;422;51.280;7.236;2022-07-01T10:47:05;21.70;99.90
871;DHT22;422;51.280;7.236;2022-07-01T10:49:58;20.90;99.90
871;DHT22;422;51.280;7.236;2022-07-01T10:52:26;20.60;99.90
871;DHT22;422;51.280;7.236;2022-07-01T10:54:56;20.20;99.90
871;DHT22;422;51.280;7.236;2022-07-01T10:57:29;19.60;99.90
871;DHT22;422;51.280;7.236;2022-07-01T11:00:29;19.60;99.90
871;DHT22;422;51.280;7.236;2022-07-01T11:03:23;19.40;99.90
871;DHT22;422;51.280;7.236;2022-07-01T11:05:53;19.60;99.90
871;DHT22;422;51.280;7.236;2022-07-01T11:08:22;19.90;99.90
871;DHT22;422;51.280;7.236;2022-07-01T11:10:55;20.30;99.90
871;DHT22;422;51.280;7.236;2022-07-01T11:13:24;20.90;99.90
871;DHT22;422;51.280;7.236;2022-07-01T11:15:52;21.70;99.90
871;DHT22;422;51.280;7.236;2022-07-01T11:18:22;22.40;99.90
871;DHT22;422;51.280;7.236;2022-07-01T11:20:49;23.00;99.90
871;DHT22;422;51.280;7.236;2022-07-01T11:23:17;22.80;99.90
871;DHT22;422;51.280;7.236;2022-07-01T11:25:46;22.80;99.90
871;DHT22;422;51.280;7.236;2022-07-01T11:28:13;22.60;99.90
871;DHT22;422;51.280;7.236;2022-07-01T11:30:40;21.70;99.90
871;DHT22;422;51.280;7.236;2022-07-01T11:33:09;21.30;99.90
871;DHT22;422;51.280;7.236;2022-07-01T11:35:43;21.60;99.90
871;DHT22;422;51.280;7.236;2022-07-01T11:38:27;21.40;99.90
871;DHT22;422;51.280;7.236;2022-07-01T11:41:20;21.90;99.90
871;DHT22;422;51.280;7.236;2022-07-01T11:43:52;22.10;99.90
871;DHT22;422;51.280;7.236;2022-07-01T11:46:19;21.80;99.90
871;DHT22;422;51.280;7.236;2022-07-01T11:48:48;22.40;99.90
871;DHT22;422;51.280;7.236;2022-07-01T11:51:25;23.50;99.90
871;DHT22;422;51.280;7.236;2022-07-01T11:53:55;24.40;99.90
871;DHT22;422;51.280;7.236;2022-07-01T11:56:30;24.80;99.90
871;DHT22;422;51.280;7.236;2022-07-01T11:58:58;24.40;99.90
871;DHT22;422;51.280;7.236;2022-07-01T12:01:29;24.20;99.90
871;DHT22;422;51.280;7.236;2022-07-01T12:03:58;24.30;99.90
871;DHT22;422;51.280;7.236;2022-07-01T12:06:27;24.80;99.90
871;DHT22;422;51.280;7.236;2022-07-01T12:08:55;25.00;99.90
871;DHT22;422;51.280;7.236;2022-07-01T12:11:25;25.20;99.90
871;DHT22;422;51.280;7.236;2022-07-01T12:14:02;24.60;99.90
871;DHT22;422;51.280;7.236;2022-07-01T12:16:38;23.60;99.90
871;DHT22;422;51.280;7.236;2022-07-01T12:19:05;23.50;99.90
871;DHT22;422;51.280;7.236;2022-07-01T12:21:48;24.40;99.90
871;DHT22;422;51.280;7.236;2022-07-01T12:24:16;25.20;99.90
871;DHT22;422;51.280;7.236;2022-07-01T12:26:58;25.80;99.90
871;DHT22;422;51.280;7.236;2022-07-01T12:29:47;25.40;99.90
871;DHT22;422;51.280;7.236;2022-07-01T12:32:17;24.70;99.90
871;DHT22;422;51.280;7.236;2022-07-01T12:34:47;23.50;99.90
871;DHT22;422;51.280;7.236;2022-07-01T12:37:19;23.00;99.90
871;DHT22;422;51.280;7.236;2022-07-01T12:39:48;22.20;99.90
871;DHT22;422;51.280;7.236;2022-07-01T12:42:27;22.20;99.90
871;DHT22;422;51.280;7.236;2022-07-01T12:44:59;22.60;99.90
871;DHT22;422;51.280;7.236;2022-07-01T12:47:28;23.10;99.90
871;DHT22;422;51.280;7.236;2022-07-01T12:50:16;23.30;99.90
871;DHT22;422;51.280;7.236;2022-07-01T12:52:59;23.00;99.90
871;DHT22;422;51.280;7.236;2022-07-01T12:55:32;22.80;99.90
871;DHT22;422;51.280;7.236;2022-07-01T12:58:03;22.50;99.90
871;DHT22;422;51.280;7.236;2022-07-01T13:00:37;22.50;99.90
871;DHT22;422;51.280;7.236;2022-07-01T13:03:08;23.80;99.90
871;DHT22;422;51.280;7.236;2022-07-01T13:05:45;24.90;99.90
871;DHT22;422;51.280;7.236;2022-07-01T13:08:14;24.80;99.90
871;DHT22;422;51.280;7.236;2022-07-01T13:10:44;24.20;99.90
871;DHT22;422;51.280;7.236;2022-07-01T13:13:12;23.50;99.90
871;DHT22;422;51.280;7.236;2022-07-01T13:15:41;23.20;99.90
871;DHT22;422;51.280;7.236;2022-07-01T13:18:11;23.00;99.90
871;DHT22;422;51.280;7.236;2022-07-01T13:20:44;22.70;99.90
871;DHT22;422;51.280;7.236;2022-07-01T13:23:17;22.00;99.90
871;DHT22;422;51.280;7.236;2022-07-01T13:25:45;21.80;99.90
871;DHT22;422;51.280;7.236;2022-07-01T13:28:12;21.50;99.90
871;DHT22;422;51.280;7.236;2022-07-01T13:30:39;21.60;99.90
871;DHT22;422;51.280;7.236;2022-07-01T13:33:06;21.70;99.90
871;DHT22;422;51.280;7.236;2022-07-01T13:35:34;22.50;99.90
871;DHT22;422;51.280;7.236;2022-07-01T13:38:01;23.80;99.90
871;DHT22;422;51.280;7.236;2022-07-01T13:40:30;24.60;99.90
871;DHT22;422;51.280;7.236;2022-07-01T13:42:57;25.40;99.90
871;DHT22;422;51.280;7.236;2022-07-01T13:45:29;25.80;99.90
871;DHT22;422;51.280;7.236;2022-07-01T13:47:56;25.90;99.90
871;DHT22;422;51.280;7.236;2022-07-01T13:50:23;26.10;99.90
871;DHT22;422;51.280;7.236;2022-07-01T13:52:56;26.00;99.90
871;DHT22;422;51.280;7.236;2022-07-01T13:55:23;26.20;99.90
871;DHT22;422;51.280;7.236;2022-07-01T13:57:54;25.80;99.90
871;DHT22;422;51.280;7.236;2022-07-01T14:00:21;25.40;99.90
871;DHT22;422;51.280;7.236;2022-07-01T14:02:48;25.20;99.90
871;DHT22;422;51.280;7.236;2022-07-01T14:05:18;24.40;99.90
871;DHT22;422;51.280;7.236;2022-07-01T14:07:47;24.20;99.90
871;DHT22;422;51.280;7.236;2022-07-01T14:10:21;24.70;99.90
871;DHT22;422;51.280;7.236;2022-07-01T14:12:53;25.20;99.90
871;DHT22;422;51.280;7.236;2022-07-01T14:15:23;25.90;99.90
871;DHT22;422;51.280;7.236;2022-07-01T14:17:52;25.80;99.90
871;DHT22;422;51.280;7.236;2022-07-01T14:20:19;25.40;99.90
871;DHT22;422;51.280;7.236;2022-07-01T14:22:48;25.00;99.90
871;DHT22;422;51.280;7.236;2022-07-01T14:25:18;24.90;99.90
871;DHT22;422;51.280;7.236;2022-07-01T14:27:48;24.50;99.90
871;DHT22;422;51.280;7.236;2022-07-01T14:30:17;25.20;99.90
871;DHT22;422;51.280;7.236;2022-07-01T14:32:44;25.40;99.90
871;DHT22;422;51.280;7.236;2022-07-01T14:35:12;25.20;99.90
871;DHT22;422;51.280;7.236;2022-07-01T14:37:39;25.50;99.90
871;DHT22;422;51.280;7.236;2022-07-01T14:40:17;24.90;99.90
871;DHT22;422;51.280;7.236;2022-07-01T14:42:45;25.50;99.90
871;DHT22;422;51.280;7.236;2022-07-01T14:45:12;25.00;99.90
871;DHT22;422;51.280;7.236;2022-07-01T14:47:42;25.20;99.90
871;DHT22;422;51.280;7.236;2022-07-01T14:50:09;25.40;99.90
871;DHT22;422;51.280;7.236;2022-07-01T14:52:37;25.20;99.90
871;DHT22;422;51.280;7.236;2022-07-01T14:55:05;25.20;99.90
871;DHT22;422;51.280;7.236;2022-07-01T14:57:35;24.90;99.90
871;DHT22;422;51.280;7.236;2022-07-01T15:00:06;24.80;99.90
871;DHT22;422;51.280;7.236;2022-07-01T15:02:34;24.70;99.90
871;DHT22;422;51.280;7.236;2022-07-01T15:05:07;24.50;99.90
871;DHT22;422;51.280;7.236;2022-07-01T15:07:37;24.90;99.90
871;DHT22;422;51.280;7.236;2022-07-01T15:10:08;25.40;99.90
871;DHT22;422;51.280;7.236;2022-07-01T15:12:36;25.30;99.90
871;DHT22;422;51.280;7.236;2022-07-01T15:15:04;25.30;99.90
871;DHT22;422;51.280;7.236;2022-07-01T15:17:41;25.60;99.90
871;DHT22;422;51.280;7.236;2022-07-01T15:20:14;24.90;99.90
871;DHT22;422;51.280;7.236;2022-07-01T15:22:44;24.50;99.90
871;DHT22;422;51.280;7.236;2022-07-01T15:25:11;24.50;99.90
871;DHT22;422;51.280;7.236;2022-07-01T15:27:39;24.40;99.90
871;DHT22;422;51.280;7.236;2022-07-01T15:30:09;23.80;99.90
871;DHT22;422;51.280;7.236;2022-07-01T15:32:37;23.80;99.90
871;DHT22;422;51.280;7.236;2022-07-01T15:35:05;23.80;99.90
871;DHT22;422;51.280;7.236;2022-07-01T15:37:36;23.60;99.90
871;DHT22;422;51.280;7.236;2022-07-01T15:40:07;23.70;99.90
871;DHT22;422;51.280;7.236;2022-07-01T15:42:38;24.20;99.90
871;DHT22;422;51.280;7.236;2022-07-01T15:45:07;24.00;99.90
871;DHT22;422;51.280;7.236;2022-07-01T15:47:34;23.90;99.90
871;DHT22;422;51.280;7.236;2022-07-01T15:50:19;24.00;99.90
871;DHT22;422;51.280;7.236;2022-07-01T15:52:51;24.10;99.90
871;DHT22;422;51.280;7.236;2022-07-01T15:55:21;24.60;99.90
871;DHT22;422;51.280;7.236;2022-07-01T15:57:49;24.20;99.90
871;DHT22;422;51.280;7.236;2022-07-01T16:00:21;23.70;99.90
871;DHT22;422;51.280;7.236;2022-07-01T16:02:49;23.70;99.90
871;DHT22;422;51.280;7.236;2022-07-01T16:05:19;24.10;99.90
871;DHT22;422;51.280;7.236;2022-07-01T16:07:54;24.10;99.90
871;DHT22;422;51.280;7.236;2022-07-01T16:10:30;24.40;99.90
871;DHT22;422;51.280;7.236;2022-07-01T16:12:58;24.30;99.90
871;DHT22;422;51.280;7.236;2022-07-01T16:15:28;24.30;99.90
871;DHT22;422;51.280;7.236;2022-07-01T16:17:56;24.10;99.90
871;DHT22;422;51.280;7.236;2022-07-01T16:20:30;23.60;99.90
871;DHT22;422;51.280;7.236;2022-07-01T16:23:02;23.40;99.90
871;DHT22;422;51.280;7.236;2022-07-01T16:25:31;23.40;99.90
871;DHT22;422;51.280;7.236;2022-07-01T16:28:00;22.80;99.90
871;DHT22;422;51.280;7.236;2022-07-01T16:30:28;22.90;99.90
871;DHT22;422;51.280;7.236;2022-07-01T16:33:00;22.90;99.90
871;DHT22;422;51.280;7.236;2022-07-01T16:35:37;23.10;99.90
871;DHT22;422;51.280;7.236;2022-07-01T16:38:10;23.60;99.90
871;DHT22;422;51.280;7.236;2022-07-01T16:40:46;23.50;99.90
871;DHT22;422;51.280;7.236;2022-07-01T16:43:18;23.30;99.90
871;DHT22;422;51.280;7.236;2022-07-01T16:45:50;23.70;99.90
871;DHT22;422;51.280;7.236;2022-07-01T16:48:20;23.80;99.90
871;DHT22;422;51.280;7.236;2022-07-01T16:50:52;24.30;99.90
871;DHT22;422;51.280;7.236;2022-07-01T16:53:27;24.40;99.90
871;DHT22;422;51.280;7.236;2022-07-01T16:56:03;24.20;99.90
871;DHT22;422;51.280;7.236;2022-07-01T16:58:32;24.10;99.90